sensor_id;sensor_type;location;lat;lon;timestamp;P1;durP1;ratioP1;P2;durP2;ratioP2
10303;SDS011;5197;48.152;8.590;2022-09-09T00:09:59;2.70;;;0.77;;
10303;SDS011;5197;48.152;8.590;2022-09-09T00:21:12;4.23;;;0.93;;
10303;SDS011;5197;48.152;8.590;2022-09-09T00:23:48;2.70;;;1.10;;
10303;SDS011;5197;48.152;8.590;2022-09-09T00:29:49;3.60;;;1.20;;
10303;SDS011;5197;48.152;8.590;2022-09-09T00:32:14;2.93;;;1.03;;
10303;SDS011;5197;48.152;8.590;2022-09-09T00:34:47;4.50;;;1.07;;
10303;SDS011;5197;48.152;8.590;2022-09-09T00:37:20;1.23;;;1.13;;
10303;SDS011;5197;48.152;8.590;2022-09-09T00:39:49;3.33;;;1.10;;
10303;SDS011;5197;48.152;8.590;2022-09-09T00:42:32;3.00;;;1.03;;
10303;SDS011;5197;48.152;8.590;2022-09-09T00:47:45;2.03;;;1.13;;
10303;SDS011;5197;48.152;8.590;2022-09-09T00:58:42;2.13;;;1.00;;
10303;SDS011;5197;48.152;8.590;2022-09-09T01:01:16;3.63;;;1.10;;
10303;SDS011;5197;48.152;8.590;2022-09-09T01:03:53;4.40;;;1.27;;
10303;SDS011;5197;48.152;8.590;2022-09-09T01:09:05;1.13;;;1.00;;
10303;SDS011;5197;48.152;8.590;2022-09-09T01:12:09;2.13;;;1.07;;
10303;SDS011;5197;48.152;8.590;2022-09-09T01:14:45;2.33;;;1.07;;
10303;SDS011;5197;48.152;8.590;2022-09-09T01:17:28;1.97;;;0.80;;
10303;SDS011;5197;48.152;8.590;2022-09-09T01:20:14;7.83;;;1.30;;
10303;SDS011;5197;48.152;8.590;2022-09-09T01:28:32;2.37;;;0.83;;
10303;SDS011;5197;48.152;8.590;2022-09-09T01:31:03;3.03;;;1.03;;
10303;SDS011;5197;48.152;8.590;2022-09-09T01:33:32;0.93;;;0.90;;
10303;SDS011;5197;48.152;8.590;2022-09-09T01:36:00;1.17;;;0.90;;
10303;SDS011;5197;48.152;8.590;2022-09-09T01:38:32;1.20;;;0.97;;
10303;SDS011;5197;48.152;8.590;2022-09-09T01:41:02;1.10;;;0.97;;
10303;SDS011;5197;48.152;8.590;2022-09-09T01:43:30;1.80;;;0.90;;
10303;SDS011;5197;48.152;8.590;2022-09-09T01:45:59;2.77;;;0.83;;
10303;SDS011;5197;48.152;8.590;2022-09-09T01:48:28;2.07;;;1.00;;
10303;SDS011;5197;48.152;8.590;2022-09-09T01:50:56;2.87;;;1.10;;
10303;SDS011;5197;48.152;8.590;2022-09-09T01:53:23;3.27;;;0.97;;
10303;SDS011;5197;48.152;8.590;2022-09-09T01:59:30;2.10;;;1.10;;
10303;SDS011;5197;48.152;8.590;2022-09-09T02:02:04;2.37;;;0.97;;
10303;SDS011;5197;48.152;8.590;2022-09-09T02:04:42;0.70;;;0.70;;
10303;SDS011;5197;48.152;8.590;2022-09-09T02:07:36;4.30;;;1.33;;
10303;SDS011;5197;48.152;8.590;2022-09-09T02:12:53;2.03;;;1.20;;
10303;SDS011;5197;48.152;8.590;2022-09-09T02:15:35;1.87;;;1.17;;
10303;SDS011;5197;48.152;8.590;2022-09-09T02:18:17;3.43;;;1.00;;
10303;SDS011;5197;48.152;8.590;2022-09-09T02:20:51;6.47;;;1.20;;
10303;SDS011;5197;48.152;8.590;2022-09-09T02:23:19;3.77;;;1.40;;
10303;SDS011;5197;48.152;8.590;2022-09-09T02:25:48;4.17;;;1.47;;
10303;SDS011;5197;48.152;8.590;2022-09-09T02:28:18;3.00;;;1.00;;
10303;SDS011;5197;48.152;8.590;2022-09-09T02:30:47;2.67;;;1.20;;
10303;SDS011;5197;48.152;8.590;2022-09-09T02:33:22;2.23;;;1.40;;
10303;SDS011;5197;48.152;8.590;2022-09-09T02:35:52;2.67;;;1.07;;
10303;SDS011;5197;48.152;8.590;2022-09-09T02:38:23;4.03;;;1.30;;
10303;SDS011;5197;48.152;8.590;2022-09-09T02:40:55;4.73;;;1.70;;
10303;SDS011;5197;48.152;8.590;2022-09-09T02:43:21;7.20;;;1.37;;
10303;SDS011;5197;48.152;8.590;2022-09-09T02:51:35;3.90;;;1.17;;
10303;SDS011;5197;48.152;8.590;2022-09-09T02:57:40;2.53;;;1.03;;
10303;SDS011;5197;48.152;8.590;2022-09-09T02:59:50;2.20;;;1.43;;
10303;SDS011;5197;48.152;8.590;2022-09-09T03:02:18;3.20;;;1.40;;
10303;SDS011;5197;48.152;8.590;2022-09-09T03:04:45;4.20;;;1.53;;
10303;SDS011;5197;48.152;8.590;2022-09-09T03:07:17;2.60;;;1.30;;
10303;SDS011;5197;48.152;8.590;2022-09-09T03:09:45;1.67;;;1.33;;
10303;SDS011;5197;48.152;8.590;2022-09-09T03:12:12;2.37;;;1.40;;
10303;SDS011;5197;48.152;8.590;2022-09-09T03:14:39;1.57;;;1.47;;
10303;SDS011;5197;48.152;8.590;2022-09-09T03:17:06;3.33;;;1.57;;
10303;SDS011;5197;48.152;8.590;2022-09-09T03:19:33;2.57;;;1.53;;
10303;SDS011;5197;48.152;8.590;2022-09-09T03:22:01;3.43;;;1.60;;
10303;SDS011;5197;48.152;8.590;2022-09-09T03:24:30;3.73;;;1.60;;
10303;SDS011;5197;48.152;8.590;2022-09-09T03:26:57;1.80;;;1.60;;
10303;SDS011;5197;48.152;8.590;2022-09-09T03:29:24;3.83;;;1.90;;
10303;SDS011;5197;48.152;8.590;2022-09-09T03:31:51;3.43;;;1.87;;
10303;SDS011;5197;48.152;8.590;2022-09-09T03:34:18;4.40;;;1.73;;
10303;SDS011;5197;48.152;8.590;2022-09-09T03:36:45;3.53;;;1.50;;
10303;SDS011;5197;48.152;8.590;2022-09-09T03:39:12;3.63;;;1.70;;
10303;SDS011;5197;48.152;8.590;2022-09-09T03:41:40;7.07;;;1.97;;
10303;SDS011;5197;48.152;8.590;2022-09-09T03:44:07;4.23;;;1.63;;
10303;SDS011;5197;48.152;8.590;2022-09-09T03:46:34;2.67;;;1.60;;
10303;SDS011;5197;48.152;8.590;2022-09-09T03:49:01;2.57;;;1.40;;
10303;SDS011;5197;48.152;8.590;2022-09-09T03:51:28;4.07;;;1.93;;
10303;SDS011;5197;48.152;8.590;2022-09-09T03:53:55;4.83;;;1.80;;
10303;SDS011;5197;48.152;8.590;2022-09-09T03:56:24;2.63;;;1.60;;
10303;SDS011;5197;48.152;8.590;2022-09-09T03:58:51;3.53;;;1.70;;
10303;SDS011;5197;48.152;8.590;2022-09-09T04:01:18;4.17;;;1.70;;
10303;SDS011;5197;48.152;8.590;2022-09-09T04:03:45;3.30;;;1.60;;
10303;SDS011;5197;48.152;8.590;2022-09-09T04:06:12;3.00;;;2.13;;
10303;SDS011;5197;48.152;8.590;2022-09-09T04:08:41;2.20;;;1.67;;
10303;SDS011;5197;48.152;8.590;2022-09-09T04:11:08;4.27;;;1.83;;
10303;SDS011;5197;48.152;8.590;2022-09-09T04:13:36;5.13;;;1.80;;
10303;SDS011;5197;48.152;8.590;2022-09-09T04:16:05;2.27;;;1.67;;
10303;SDS011;5197;48.152;8.590;2022-09-09T04:18:34;2.93;;;1.70;;
10303;SDS011;5197;48.152;8.590;2022-09-09T04:21:01;1.80;;;1.70;;
10303;SDS011;5197;48.152;8.590;2022-09-09T04:23:30;3.77;;;1.97;;
10303;SDS011;5197;48.152;8.590;2022-09-09T04:25:57;2.87;;;2.10;;
10303;SDS011;5197;48.152;8.590;2022-09-09T04:28:26;3.23;;;1.57;;
10303;SDS011;5197;48.152;8.590;2022-09-09T04:30:56;3.63;;;2.07;;
10303;SDS011;5197;48.152;8.590;2022-09-09T04:33:25;2.10;;;1.90;;
10303;SDS011;5197;48.152;8.590;2022-09-09T04:35:53;1.93;;;1.70;;
10303;SDS011;5197;48.152;8.590;2022-09-09T04:38:20;4.60;;;1.93;;
10303;SDS011;5197;48.152;8.590;2022-09-09T04:40:50;4.93;;;2.10;;
10303;SDS011;5197;48.152;8.590;2022-09-09T04:43:18;3.90;;;1.90;;
10303;SDS011;5197;48.152;8.590;2022-09-09T04:45:46;2.70;;;1.67;;
10303;SDS011;5197;48.152;8.590;2022-09-09T04:48:15;2.53;;;1.57;;
10303;SDS011;5197;48.152;8.590;2022-09-09T04:50:42;2.07;;;1.60;;
10303;SDS011;5197;48.152;8.590;2022-09-09T04:53:08;4.60;;;1.80;;
10303;SDS011;5197;48.152;8.590;2022-09-09T04:55:35;4.90;;;1.90;;
10303;SDS011;5197;48.152;8.590;2022-09-09T04:58:06;5.40;;;1.80;;
10303;SDS011;5197;48.152;8.590;2022-09-09T05:00:34;3.23;;;1.80;;
10303;SDS011;5197;48.152;8.590;2022-09-09T05:03:03;2.77;;;1.70;;
10303;SDS011;5197;48.152;8.590;2022-09-09T05:05:31;5.40;;;2.13;;
10303;SDS011;5197;48.152;8.590;2022-09-09T05:08:03;3.20;;;1.80;;
10303;SDS011;5197;48.152;8.590;2022-09-09T05:10:31;3.97;;;1.83;;
10303;SDS011;5197;48.152;8.590;2022-09-09T05:12:59;1.87;;;1.77;;
10303;SDS011;5197;48.152;8.590;2022-09-09T05:15:26;5.30;;;2.00;;
10303;SDS011;5197;48.152;8.590;2022-09-09T05:17:56;3.37;;;2.20;;
10303;SDS011;5197;48.152;8.590;2022-09-09T05:20:25;2.60;;;2.00;;
10303;SDS011;5197;48.152;8.590;2022-09-09T05:22:53;5.57;;;2.03;;
10303;SDS011;5197;48.152;8.590;2022-09-09T05:25:20;3.53;;;1.67;;
10303;SDS011;5197;48.152;8.590;2022-09-09T05:27:48;2.00;;;1.80;;
10303;SDS011;5197;48.152;8.590;2022-09-09T05:30:15;2.70;;;1.90;;
10303;SDS011;5197;48.152;8.590;2022-09-09T05:32:45;3.23;;;1.97;;
10303;SDS011;5197;48.152;8.590;2022-09-09T05:35:12;5.87;;;2.00;;
10303;SDS011;5197;48.152;8.590;2022-09-09T05:37:39;3.03;;;1.90;;
10303;SDS011;5197;48.152;8.590;2022-09-09T05:40:06;3.87;;;2.00;;
10303;SDS011;5197;48.152;8.590;2022-09-09T05:42:33;3.70;;;1.73;;
10303;SDS011;5197;48.152;8.590;2022-09-09T05:45:00;2.87;;;1.80;;
10303;SDS011;5197;48.152;8.590;2022-09-09T05:47:27;2.50;;;1.70;;
10303;SDS011;5197;48.152;8.590;2022-09-09T05:49:55;4.50;;;1.90;;
10303;SDS011;5197;48.152;8.590;2022-09-09T05:52:22;3.10;;;1.97;;
10303;SDS011;5197;48.152;8.590;2022-09-09T05:54:49;2.00;;;1.87;;
10303;SDS011;5197;48.152;8.590;2022-09-09T05:57:16;4.83;;;1.90;;
10303;SDS011;5197;48.152;8.590;2022-09-09T05:59:45;3.37;;;1.90;;
10303;SDS011;5197;48.152;8.590;2022-09-09T06:02:12;5.50;;;2.10;;
10303;SDS011;5197;48.152;8.590;2022-09-09T06:04:39;3.00;;;2.10;;
10303;SDS011;5197;48.152;8.590;2022-09-09T06:07:07;3.93;;;1.90;;
10303;SDS011;5197;48.152;8.590;2022-09-09T06:09:33;3.63;;;1.90;;
10303;SDS011;5197;48.152;8.590;2022-09-09T06:12:00;3.07;;;2.30;;
10303;SDS011;5197;48.152;8.590;2022-09-09T06:14:27;3.47;;;1.90;;
10303;SDS011;5197;48.152;8.590;2022-09-09T06:16:54;5.07;;;1.80;;
10303;SDS011;5197;48.152;8.590;2022-09-09T06:19:22;2.40;;;2.00;;
10303;SDS011;5197;48.152;8.590;2022-09-09T06:21:52;3.40;;;2.17;;
10303;SDS011;5197;48.152;8.590;2022-09-09T06:24:19;4.77;;;2.10;;
10303;SDS011;5197;48.152;8.590;2022-09-09T06:26:46;3.13;;;1.70;;
10303;SDS011;5197;48.152;8.590;2022-09-09T06:29:13;3.77;;;1.83;;
10303;SDS011;5197;48.152;8.590;2022-09-09T06:31:40;3.53;;;1.67;;
10303;SDS011;5197;48.152;8.590;2022-09-09T06:34:08;4.60;;;1.70;;
10303;SDS011;5197;48.152;8.590;2022-09-09T06:36:36;4.73;;;1.80;;
10303;SDS011;5197;48.152;8.590;2022-09-09T06:39:04;4.30;;;1.90;;
10303;SDS011;5197;48.152;8.590;2022-09-09T06:41:39;4.43;;;3.60;;
10303;SDS011;5197;48.152;8.590;2022-09-09T06:44:06;8.10;;;5.70;;
10303;SDS011;5197;48.152;8.590;2022-09-09T06:46:33;6.17;;;3.60;;
10303;SDS011;5197;48.152;8.590;2022-09-09T06:49:02;3.57;;;2.80;;
10303;SDS011;5197;48.152;8.590;2022-09-09T06:51:30;4.03;;;2.23;;
10303;SDS011;5197;48.152;8.590;2022-09-09T06:54:00;2.47;;;1.97;;
10303;SDS011;5197;48.152;8.590;2022-09-09T06:56:32;3.33;;;1.90;;
10303;SDS011;5197;48.152;8.590;2022-09-09T06:59:02;4.70;;;1.70;;
10303;SDS011;5197;48.152;8.590;2022-09-09T07:01:32;3.97;;;1.77;;
10303;SDS011;5197;48.152;8.590;2022-09-09T07:04:01;4.90;;;1.60;;
10303;SDS011;5197;48.152;8.590;2022-09-09T07:06:31;5.50;;;2.00;;
10303;SDS011;5197;48.152;8.590;2022-09-09T07:09:02;4.47;;;2.60;;
10303;SDS011;5197;48.152;8.590;2022-09-09T07:11:32;6.03;;;2.10;;
10303;SDS011;5197;48.152;8.590;2022-09-09T07:14:05;4.13;;;2.10;;
10303;SDS011;5197;48.152;8.590;2022-09-09T07:16:31;4.40;;;2.20;;
10303;SDS011;5197;48.152;8.590;2022-09-09T07:18:59;3.13;;;2.37;;
10303;SDS011;5197;48.152;8.590;2022-09-09T07:21:28;3.63;;;2.10;;
10303;SDS011;5197;48.152;8.590;2022-09-09T07:23:56;2.50;;;2.13;;
10303;SDS011;5197;48.152;8.590;2022-09-09T07:26:24;3.83;;;2.60;;
10303;SDS011;5197;48.152;8.590;2022-09-09T07:28:53;3.00;;;2.77;;
10303;SDS011;5197;48.152;8.590;2022-09-09T07:31:33;6.07;;;2.27;;
10303;SDS011;5197;48.152;8.590;2022-09-09T07:34:03;2.30;;;2.10;;
10303;SDS011;5197;48.152;8.590;2022-09-09T07:36:32;5.17;;;2.33;;
10303;SDS011;5197;48.152;8.590;2022-09-09T07:39:01;2.57;;;2.10;;
10303;SDS011;5197;48.152;8.590;2022-09-09T07:41:41;2.97;;;2.07;;
10303;SDS011;5197;48.152;8.590;2022-09-09T07:44:11;2.40;;;2.20;;
10303;SDS011;5197;48.152;8.590;2022-09-09T07:46:41;4.17;;;2.70;;
10303;SDS011;5197;48.152;8.590;2022-09-09T07:49:09;3.03;;;2.20;;
10303;SDS011;5197;48.152;8.590;2022-09-09T07:51:37;2.83;;;2.17;;
10303;SDS011;5197;48.152;8.590;2022-09-09T07:54:08;7.93;;;2.00;;
10303;SDS011;5197;48.152;8.590;2022-09-09T07:56:37;4.97;;;2.30;;
10303;SDS011;5197;48.152;8.590;2022-09-09T07:59:06;2.60;;;2.20;;
10303;SDS011;5197;48.152;8.590;2022-09-09T08:01:34;2.87;;;1.73;;
10303;SDS011;5197;48.152;8.590;2022-09-09T08:04:10;5.23;;;1.80;;
10303;SDS011;5197;48.152;8.590;2022-09-09T08:06:47;2.03;;;1.60;;
10303;SDS011;5197;48.152;8.590;2022-09-09T08:09:15;1.30;;;1.10;;
10303;SDS011;5197;48.152;8.590;2022-09-09T08:11:43;2.33;;;1.10;;
10303;SDS011;5197;48.152;8.590;2022-09-09T08:14:11;5.50;;;1.80;;
10303;SDS011;5197;48.152;8.590;2022-09-09T08:16:40;2.27;;;1.37;;
10303;SDS011;5197;48.152;8.590;2022-09-09T08:19:08;1.67;;;1.10;;
10303;SDS011;5197;48.152;8.590;2022-09-09T08:21:36;2.60;;;1.03;;
10303;SDS011;5197;48.152;8.590;2022-09-09T08:24:06;3.05;;;1.70;;
10303;SDS011;5197;48.152;8.590;2022-09-09T08:26:36;2.33;;;1.15;;
10303;SDS011;5197;48.152;8.590;2022-09-09T08:29:04;3.33;;;1.02;;
10303;SDS011;5197;48.152;8.590;2022-09-09T08:31:33;1.95;;;1.30;;
10303;SDS011;5197;48.152;8.590;2022-09-09T08:34:03;1.38;;;0.95;;
10303;SDS011;5197;48.152;8.590;2022-09-09T08:36:33;1.30;;;1.20;;
10303;SDS011;5197;48.152;8.590;2022-09-09T08:39:03;2.22;;;1.55;;
10303;SDS011;5197;48.152;8.590;2022-09-09T08:50:46;2.63;;;1.20;;
10303;SDS011;5197;48.152;8.590;2022-09-09T08:53:04;1.77;;;1.20;;
10303;SDS011;5197;48.152;8.590;2022-09-09T08:55:47;2.30;;;1.40;;
10303;SDS011;5197;48.152;8.590;2022-09-09T08:58:18;2.25;;;1.38;;
10303;SDS011;5197;48.152;8.590;2022-09-09T09:09:07;4.35;;;1.25;;
10303;SDS011;5197;48.152;8.590;2022-09-09T09:11:48;2.13;;;1.15;;
10303;SDS011;5197;48.152;8.590;2022-09-09T09:14:22;2.72;;;1.20;;
10303;SDS011;5197;48.152;8.590;2022-09-09T09:16:53;1.85;;;0.95;;
10303;SDS011;5197;48.152;8.590;2022-09-09T09:19:26;3.70;;;1.00;;
10303;SDS011;5197;48.152;8.590;2022-09-09T09:27:16;4.43;;;1.40;;
10303;SDS011;5197;48.152;8.590;2022-09-09T09:29:55;3.42;;;1.50;;
10303;SDS011;5197;48.152;8.590;2022-09-09T09:33:08;4.37;;;1.43;;
10303;SDS011;5197;48.152;8.590;2022-09-09T09:35:52;2.93;;;1.40;;
10303;SDS011;5197;48.152;8.590;2022-09-09T09:38:23;4.40;;;1.53;;
10303;SDS011;5197;48.152;8.590;2022-09-09T09:41:12;2.33;;;1.10;;
10303;SDS011;5197;48.152;8.590;2022-09-09T09:43:40;1.37;;;0.90;;
10303;SDS011;5197;48.152;8.590;2022-09-09T09:46:22;4.17;;;1.20;;
10303;SDS011;5197;48.152;8.590;2022-09-09T09:49:02;2.97;;;0.90;;
10303;SDS011;5197;48.152;8.590;2022-09-09T09:51:32;2.90;;;1.00;;
10303;SDS011;5197;48.152;8.590;2022-09-09T09:54:08;1.93;;;1.30;;
10303;SDS011;5197;48.152;8.590;2022-09-09T09:56:39;3.00;;;1.00;;
10303;SDS011;5197;48.152;8.590;2022-09-09T09:59:19;1.83;;;1.10;;
10303;SDS011;5197;48.152;8.590;2022-09-09T10:02:21;3.37;;;0.80;;
10303;SDS011;5197;48.152;8.590;2022-09-09T10:26:58;3.50;;;1.17;;
10303;SDS011;5197;48.152;8.590;2022-09-09T10:29:29;3.17;;;1.00;;
10303;SDS011;5197;48.152;8.590;2022-09-09T10:56:53;0.90;;;0.70;;
10303;SDS011;5197;48.152;8.590;2022-09-09T10:59:27;1.10;;;0.55;;
10303;SDS011;5197;48.152;8.590;2022-09-09T11:02:05;1.20;;;0.60;;
10303;SDS011;5197;48.152;8.590;2022-09-09T11:05:01;1.77;;;0.80;;
10303;SDS011;5197;48.152;8.590;2022-09-09T11:10:20;1.20;;;0.75;;
10303;SDS011;5197;48.152;8.590;2022-09-09T11:12:52;1.10;;;0.90;;
10303;SDS011;5197;48.152;8.590;2022-09-09T11:15:28;0.68;;;0.65;;
10303;SDS011;5197;48.152;8.590;2022-09-09T11:18:01;0.70;;;0.70;;
10303;SDS011;5197;48.152;8.590;2022-09-09T11:20:31;1.10;;;0.68;;
10303;SDS011;5197;48.152;8.590;2022-09-09T11:23:03;1.65;;;0.77;;
10303;SDS011;5197;48.152;8.590;2022-09-09T11:25:36;3.50;;;0.75;;
10303;SDS011;5197;48.152;8.590;2022-09-09T11:42:21;1.35;;;0.68;;
10303;SDS011;5197;48.152;8.590;2022-09-09T11:44:50;1.02;;;0.60;;
10303;SDS011;5197;48.152;8.590;2022-09-09T11:47:24;1.42;;;0.70;;
10303;SDS011;5197;48.152;8.590;2022-09-09T11:50:11;3.22;;;0.80;;
10303;SDS011;5197;48.152;8.590;2022-09-09T11:53:31;1.10;;;0.50;;
10303;SDS011;5197;48.152;8.590;2022-09-09T11:56:05;2.63;;;0.70;;
10303;SDS011;5197;48.152;8.590;2022-09-09T11:58:39;1.73;;;0.70;;
10303;SDS011;5197;48.152;8.590;2022-09-09T12:06:44;3.72;;;0.82;;
10303;SDS011;5197;48.152;8.590;2022-09-09T12:09:56;1.17;;;0.70;;
10303;SDS011;5197;48.152;8.590;2022-09-09T12:19:42;2.28;;;0.80;;
10303;SDS011;5197;48.152;8.590;2022-09-09T12:24:54;0.70;;;0.60;;
10303;SDS011;5197;48.152;8.590;2022-09-09T12:28:18;1.67;;;0.80;;
10303;SDS011;5197;48.152;8.590;2022-09-09T12:30:29;2.03;;;0.77;;
10303;SDS011;5197;48.152;8.590;2022-09-09T12:33:23;2.13;;;0.80;;
10303;SDS011;5197;48.152;8.590;2022-09-09T12:35:53;1.13;;;0.70;;
10303;SDS011;5197;48.152;8.590;2022-09-09T12:38:26;2.60;;;1.00;;
10303;SDS011;5197;48.152;8.590;2022-09-09T12:40:58;2.10;;;0.98;;
10303;SDS011;5197;48.152;8.590;2022-09-09T12:43:27;1.02;;;0.65;;
10303;SDS011;5197;48.152;8.590;2022-09-09T12:45:59;1.73;;;0.82;;
10303;SDS011;5197;48.152;8.590;2022-09-09T12:48:31;2.25;;;0.77;;
10303;SDS011;5197;48.152;8.590;2022-09-09T12:51:03;2.40;;;1.08;;
10303;SDS011;5197;48.152;8.590;2022-09-09T12:53:43;3.15;;;0.70;;
10303;SDS011;5197;48.152;8.590;2022-09-09T12:56:22;1.05;;;0.70;;
10303;SDS011;5197;48.152;8.590;2022-09-09T12:58:53;2.63;;;0.90;;
10303;SDS011;5197;48.152;8.590;2022-09-09T13:01:26;2.30;;;0.60;;
10303;SDS011;5197;48.152;8.590;2022-09-09T13:03:55;2.50;;;0.70;;
10303;SDS011;5197;48.152;8.590;2022-09-09T13:06:27;1.55;;;0.73;;
10303;SDS011;5197;48.152;8.590;2022-09-09T13:08:59;1.50;;;0.70;;
10303;SDS011;5197;48.152;8.590;2022-09-09T13:14:02;2.05;;;0.77;;
10303;SDS011;5197;48.152;8.590;2022-09-09T13:16:31;1.95;;;0.80;;
10303;SDS011;5197;48.152;8.590;2022-09-09T13:19:08;2.22;;;1.00;;
10303;SDS011;5197;48.152;8.590;2022-09-09T13:21:40;1.65;;;0.82;;
10303;SDS011;5197;48.152;8.590;2022-09-09T13:24:21;2.28;;;0.75;;
10303;SDS011;5197;48.152;8.590;2022-09-09T13:26:58;1.45;;;0.80;;
10303;SDS011;5197;48.152;8.590;2022-09-09T13:29:32;1.88;;;0.90;;
10303;SDS011;5197;48.152;8.590;2022-09-09T13:32:06;2.00;;;0.77;;
10303;SDS011;5197;48.152;8.590;2022-09-09T13:34:50;2.88;;;0.85;;
10303;SDS011;5197;48.152;8.590;2022-09-09T13:37:32;3.17;;;1.00;;
10303;SDS011;5197;48.152;8.590;2022-09-09T13:40:05;2.67;;;0.98;;
10303;SDS011;5197;48.152;8.590;2022-09-09T13:42:34;3.00;;;0.90;;
10303;SDS011;5197;48.152;8.590;2022-09-09T13:45:05;1.85;;;0.80;;
10303;SDS011;5197;48.152;8.590;2022-09-09T13:47:42;2.38;;;1.00;;
10303;SDS011;5197;48.152;8.590;2022-09-09T13:50:42;1.00;;;0.77;;
10303;SDS011;5197;48.152;8.590;2022-09-09T13:53:02;1.95;;;1.00;;
10303;SDS011;5197;48.152;8.590;2022-09-09T13:55:30;1.60;;;0.88;;
10303;SDS011;5197;48.152;8.590;2022-09-09T13:57:58;1.65;;;0.70;;
10303;SDS011;5197;48.152;8.590;2022-09-09T14:00:29;3.47;;;0.85;;
10303;SDS011;5197;48.152;8.590;2022-09-09T14:02:58;1.83;;;0.70;;
10303;SDS011;5197;48.152;8.590;2022-09-09T14:05:28;0.95;;;0.63;;
10303;SDS011;5197;48.152;8.590;2022-09-09T14:07:57;1.75;;;0.80;;
10303;SDS011;5197;48.152;8.590;2022-09-09T14:10:26;0.95;;;0.50;;
10303;SDS011;5197;48.152;8.590;2022-09-09T14:12:53;1.55;;;0.43;;
10303;SDS011;5197;48.152;8.590;2022-09-09T14:15:20;2.05;;;0.82;;
10303;SDS011;5197;48.152;8.590;2022-09-09T14:17:48;3.97;;;0.80;;
10303;SDS011;5197;48.152;8.590;2022-09-09T14:20:15;2.30;;;0.80;;
10303;SDS011;5197;48.152;8.590;2022-09-09T14:22:43;4.20;;;0.80;;
10303;SDS011;5197;48.152;8.590;2022-09-09T14:25:11;2.15;;;0.80;;
10303;SDS011;5197;48.152;8.590;2022-09-09T14:27:41;2.20;;;0.80;;
10303;SDS011;5197;48.152;8.590;2022-09-09T14:30:08;2.75;;;0.73;;
10303;SDS011;5197;48.152;8.590;2022-09-09T14:32:36;0.52;;;0.40;;
10303;SDS011;5197;48.152;8.590;2022-09-09T14:35:02;0.50;;;0.50;;
10303;SDS011;5197;48.152;8.590;2022-09-09T14:37:30;4.15;;;0.50;;
10303;SDS011;5197;48.152;8.590;2022-09-09T14:39:57;1.55;;;0.40;;
10303;SDS011;5197;48.152;8.590;2022-09-09T14:42:25;0.33;;;0.30;;
10303;SDS011;5197;48.152;8.590;2022-09-09T14:44:53;0.30;;;0.30;;
10303;SDS011;5197;48.152;8.590;2022-09-09T14:47:20;1.30;;;0.43;;
10303;SDS011;5197;48.152;8.590;2022-09-09T14:49:46;0.57;;;0.50;;
10303;SDS011;5197;48.152;8.590;2022-09-09T14:52:15;0.57;;;0.40;;
10303;SDS011;5197;48.152;8.590;2022-09-09T14:54:43;1.10;;;0.90;;
10303;SDS011;5197;48.152;8.590;2022-09-09T14:57:10;1.65;;;0.47;;
10303;SDS011;5197;48.152;8.590;2022-09-09T14:59:36;1.85;;;0.57;;
10303;SDS011;5197;48.152;8.590;2022-09-09T15:02:03;0.57;;;0.50;;
10303;SDS011;5197;48.152;8.590;2022-09-09T15:04:31;0.57;;;0.40;;
10303;SDS011;5197;48.152;8.590;2022-09-09T15:06:58;0.57;;;0.53;;
10303;SDS011;5197;48.152;8.590;2022-09-09T15:09:25;0.90;;;0.50;;
10303;SDS011;5197;48.152;8.590;2022-09-09T15:11:52;2.37;;;0.50;;
10303;SDS011;5197;48.152;8.590;2022-09-09T15:14:19;0.98;;;0.60;;
10303;SDS011;5197;48.152;8.590;2022-09-09T15:16:50;1.13;;;0.70;;
10303;SDS011;5197;48.152;8.590;2022-09-09T15:19:21;1.38;;;0.60;;
10303;SDS011;5197;48.152;8.590;2022-09-09T15:21:48;0.75;;;0.47;;
10303;SDS011;5197;48.152;8.590;2022-09-09T15:24:34;1.20;;;0.43;;
10303;SDS011;5197;48.152;8.590;2022-09-09T15:27:21;0.30;;;0.30;;
10303;SDS011;5197;48.152;8.590;2022-09-09T15:30:09;0.40;;;0.40;;
10303;SDS011;5197;48.152;8.590;2022-09-09T15:32:37;1.85;;;0.60;;
10303;SDS011;5197;48.152;8.590;2022-09-09T15:35:06;1.35;;;0.60;;
10303;SDS011;5197;48.152;8.590;2022-09-09T15:37:33;0.40;;;0.40;;
10303;SDS011;5197;48.152;8.590;2022-09-09T15:40:00;1.10;;;0.50;;
10303;SDS011;5197;48.152;8.590;2022-09-09T15:42:27;1.40;;;0.50;;
10303;SDS011;5197;48.152;8.590;2022-09-09T15:44:56;0.35;;;0.30;;
10303;SDS011;5197;48.152;8.590;2022-09-09T15:47:23;1.10;;;0.63;;
10303;SDS011;5197;48.152;8.590;2022-09-09T15:49:50;1.70;;;0.88;;
10303;SDS011;5197;48.152;8.590;2022-09-09T15:52:17;1.40;;;0.80;;
10303;SDS011;5197;48.152;8.590;2022-09-09T15:54:44;1.20;;;0.65;;
10303;SDS011;5197;48.152;8.590;2022-09-09T15:57:12;0.93;;;0.53;;
10303;SDS011;5197;48.152;8.590;2022-09-09T15:59:39;1.73;;;0.60;;
10303;SDS011;5197;48.152;8.590;2022-09-09T16:02:06;0.65;;;0.47;;
10303;SDS011;5197;48.152;8.590;2022-09-09T16:04:33;3.50;;;0.80;;
10303;SDS011;5197;48.152;8.590;2022-09-09T16:07:01;2.13;;;0.53;;
10303;SDS011;5197;48.152;8.590;2022-09-09T16:09:30;3.40;;;0.73;;
10303;SDS011;5197;48.152;8.590;2022-09-09T16:11:58;1.73;;;0.60;;
10303;SDS011;5197;48.152;8.590;2022-09-09T16:14:27;1.33;;;0.60;;
10303;SDS011;5197;48.152;8.590;2022-09-09T16:16:55;1.67;;;0.90;;
10303;SDS011;5197;48.152;8.590;2022-09-09T16:19:22;3.30;;;0.80;;
10303;SDS011;5197;48.152;8.590;2022-09-09T16:21:49;1.17;;;0.53;;
10303;SDS011;5197;48.152;8.590;2022-09-09T16:24:17;0.50;;;0.50;;
10303;SDS011;5197;48.152;8.590;2022-09-09T16:26:47;1.80;;;0.60;;
10303;SDS011;5197;48.152;8.590;2022-09-09T16:29:15;1.03;;;1.00;;
10303;SDS011;5197;48.152;8.590;2022-09-09T16:31:47;1.77;;;0.93;;
10303;SDS011;5197;48.152;8.590;2022-09-09T16:34:16;2.77;;;0.97;;
10303;SDS011;5197;48.152;8.590;2022-09-09T16:36:44;3.73;;;0.93;;
10303;SDS011;5197;48.152;8.590;2022-09-09T16:39:12;2.23;;;0.80;;
10303;SDS011;5197;48.152;8.590;2022-09-09T16:41:44;2.03;;;0.70;;
10303;SDS011;5197;48.152;8.590;2022-09-09T16:44:14;3.33;;;0.63;;
10303;SDS011;5197;48.152;8.590;2022-09-09T16:46:43;1.13;;;0.80;;
10303;SDS011;5197;48.152;8.590;2022-09-09T16:49:11;1.10;;;0.63;;
10303;SDS011;5197;48.152;8.590;2022-09-09T16:51:40;2.87;;;0.77;;
10303;SDS011;5197;48.152;8.590;2022-09-09T16:54:10;1.97;;;0.97;;
10303;SDS011;5197;48.152;8.590;2022-09-09T16:56:39;3.70;;;1.17;;
10303;SDS011;5197;48.152;8.590;2022-09-09T16:59:08;5.93;;;1.50;;
10303;SDS011;5197;48.152;8.590;2022-09-09T17:01:47;3.30;;;1.00;;
10303;SDS011;5197;48.152;8.590;2022-09-09T17:04:17;3.27;;;1.07;;
10303;SDS011;5197;48.152;8.590;2022-09-09T17:06:47;4.03;;;0.97;;
10303;SDS011;5197;48.152;8.590;2022-09-09T17:09:18;4.80;;;1.07;;
10303;SDS011;5197;48.152;8.590;2022-09-09T17:11:47;1.20;;;1.03;;
10303;SDS011;5197;48.152;8.590;2022-09-09T17:14:17;7.60;;;1.03;;
10303;SDS011;5197;48.152;8.590;2022-09-09T17:16:45;4.10;;;1.40;;
10303;SDS011;5197;48.152;8.590;2022-09-09T17:19:13;4.43;;;1.10;;
10303;SDS011;5197;48.152;8.590;2022-09-09T17:21:40;3.07;;;1.20;;
10303;SDS011;5197;48.152;8.590;2022-09-09T17:24:27;1.73;;;0.93;;
10303;SDS011;5197;48.152;8.590;2022-09-09T17:26:55;2.23;;;0.70;;
10303;SDS011;5197;48.152;8.590;2022-09-09T17:29:23;1.67;;;0.60;;
10303;SDS011;5197;48.152;8.590;2022-09-09T17:31:51;2.17;;;0.70;;
10303;SDS011;5197;48.152;8.590;2022-09-09T17:34:18;1.93;;;0.77;;
10303;SDS011;5197;48.152;8.590;2022-09-09T17:36:45;2.57;;;0.90;;
10303;SDS011;5197;48.152;8.590;2022-09-09T17:39:12;1.03;;;0.57;;
10303;SDS011;5197;48.152;8.590;2022-09-09T17:41:39;3.70;;;0.73;;
10303;SDS011;5197;48.152;8.590;2022-09-09T17:44:06;2.23;;;0.90;;
10303;SDS011;5197;48.152;8.590;2022-09-09T17:46:35;2.33;;;0.80;;
10303;SDS011;5197;48.152;8.590;2022-09-09T17:49:13;2.43;;;0.60;;
10303;SDS011;5197;48.152;8.590;2022-09-09T17:51:42;0.67;;;0.63;;
10303;SDS011;5197;48.152;8.590;2022-09-09T17:54:11;1.80;;;0.73;;
10303;SDS011;5197;48.152;8.590;2022-09-09T17:56:50;1.70;;;0.70;;
10303;SDS011;5197;48.152;8.590;2022-09-09T17:59:18;0.83;;;0.43;;
10303;SDS011;5197;48.152;8.590;2022-09-09T18:01:46;0.93;;;0.70;;
10303;SDS011;5197;48.152;8.590;2022-09-09T18:04:15;1.43;;;0.70;;